createdAt,value
2024-01-08T00:02:09.590Z,-1.88
2024-01-08T00:04:36.121Z,-1.82
2024-01-08T00:07:02.622Z,-1.85
2024-01-08T00:09:29.095Z,-1.93
2024-01-08T00:11:55.539Z,-1.89
2024-01-08T00:14:22.024Z,-1.90
2024-01-08T00:16:48.613Z,-2.01
2024-01-08T00:19:15.262Z,-2.03
2024-01-08T00:21:42.757Z,-1.97
2024-01-08T00:24:09.493Z,-1.99
2024-01-08T00:26:36.194Z,-2.07
2024-01-08T00:29:03.095Z,-2.09
2024-01-08T00:31:29.706Z,-2.04
2024-01-08T00:33:56.187Z,-2.04
2024-01-08T00:36:23.302Z,-2.04
2024-01-08T00:38:49.896Z,-2.09
2024-01-08T00:41:16.459Z,-2.00
2024-01-08T00:43:42.956Z,-2.13
2024-01-08T00:46:09.441Z,-2.14
2024-01-08T00:48:35.988Z,-2.20
2024-01-08T00:51:02.455Z,-2.31
2024-01-08T00:53:28.992Z,-2.25
2024-01-08T00:55:55.496Z,-2.35
2024-01-08T00:58:22.059Z,-2.45
2024-01-08T01:00:48.511Z,-2.48
2024-01-08T01:03:15.247Z,-2.53
2024-01-08T01:05:41.860Z,-2.60
2024-01-08T01:08:08.330Z,-2.59
2024-01-08T01:10:34.761Z,-2.62
2024-01-08T01:13:01.165Z,-2.74
2024-01-08T01:15:27.702Z,-2.66
2024-01-08T01:17:54.335Z,-2.76
2024-01-08T01:20:20.877Z,-2.79
2024-01-08T01:22:47.377Z,-2.73
2024-01-08T01:25:14.112Z,-2.82
2024-01-08T01:27:40.517Z,-2.78
2024-01-08T01:30:07.669Z,-2.83
2024-01-08T01:32:34.280Z,-2.83
2024-01-08T01:35:00.784Z,-2.90
2024-01-08T01:37:27.399Z,-2.82
2024-01-08T01:39:53.809Z,-2.84
2024-01-08T01:42:20.202Z,-2.88
2024-01-08T01:44:46.630Z,-2.91
2024-01-08T01:47:13.092Z,-2.97
2024-01-08T01:49:40.769Z,-2.88
2024-01-08T01:52:09.488Z,-2.90
2024-01-08T01:54:36.502Z,-2.85
2024-01-08T01:57:04.958Z,-2.87
2024-01-08T01:59:33.379Z,-2.79
2024-01-08T02:02:01.576Z,-2.82
2024-01-08T02:04:30.422Z,-2.80
2024-01-08T02:07:00.051Z,-2.79
2024-01-08T02:09:27.937Z,-2.65
2024-01-08T02:11:54.989Z,-2.66
2024-01-08T02:14:21.459Z,-2.70
2024-01-08T02:16:49.260Z,-2.72
2024-01-08T02:19:15.842Z,-2.71
2024-01-08T02:21:42.369Z,-2.61
2024-01-08T02:24:09.048Z,-2.69
2024-01-08T02:26:37.319Z,-2.64
2024-01-08T02:29:04.059Z,-2.60
2024-01-08T02:31:31.952Z,-2.59
2024-01-08T02:33:58.515Z,-2.50
2024-01-08T02:36:25.322Z,-2.48
2024-01-08T02:38:51.782Z,-2.44
2024-01-08T02:41:18.204Z,-2.50
2024-01-08T02:43:44.813Z,-2.50
2024-01-08T02:46:11.227Z,-2.43
2024-01-08T02:48:37.740Z,-2.47
2024-01-08T02:51:04.216Z,-2.42
2024-01-08T02:53:30.758Z,-2.46
2024-01-08T02:55:57.250Z,-2.50
2024-01-08T02:58:23.677Z,-2.44
2024-01-08T03:00:50.151Z,-2.44
2024-01-08T03:03:16.646Z,-2.40
2024-01-08T03:05:43.156Z,-2.43
2024-01-08T03:08:09.663Z,-2.31
2024-01-08T03:10:36.066Z,-2.31
2024-01-08T03:13:02.512Z,-2.27
2024-01-08T03:15:29.003Z,-2.40
2024-01-08T03:17:55.456Z,-2.43
2024-01-08T03:20:24.035Z,-2.42
2024-01-08T03:22:52.389Z,-2.36
2024-01-08T03:25:19.238Z,-2.34
2024-01-08T03:27:45.863Z,-2.35
2024-01-08T03:30:12.561Z,-2.24
2024-01-08T03:32:39.235Z,-2.29
2024-01-08T03:35:05.923Z,-2.23
2024-01-08T03:37:32.737Z,-2.27
2024-01-08T03:39:59.325Z,-2.28
2024-01-08T03:42:25.780Z,-2.30
2024-01-08T03:44:52.259Z,-2.33
2024-01-08T03:47:18.837Z,-2.32
2024-01-08T03:49:45.738Z,-2.36
2024-01-08T03:52:13.016Z,-2.36
2024-01-08T03:54:39.576Z,-2.32
2024-01-08T03:57:06.169Z,-2.36
2024-01-08T03:59:32.808Z,-2.32
2024-01-08T04:01:59.528Z,-2.32
2024-01-08T04:04:26.005Z,-2.28
2024-01-08T04:06:52.408Z,-2.39
2024-01-08T04:09:19.101Z,-2.33
2024-01-08T04:11:45.727Z,-2.42
2024-01-08T04:14:13.439Z,-2.38
2024-01-08T04:16:40.028Z,-2.42
2024-01-08T04:19:07.054Z,-2.34
2024-01-08T04:21:34.507Z,-2.34
2024-01-08T04:24:00.969Z,-2.28
2024-01-08T04:26:28.348Z,-2.31
2024-01-08T04:28:55.087Z,-2.36
2024-01-08T04:31:21.878Z,-2.40
2024-01-08T04:33:49.842Z,-2.41
2024-01-08T04:36:17.093Z,-2.34
2024-01-08T04:38:46.724Z,-2.22
2024-01-08T04:41:22.882Z,-2.30
2024-01-08T04:43:50.021Z,-2.25
2024-01-08T04:46:16.744Z,-2.29
2024-01-08T04:48:43.517Z,-2.24
2024-01-08T04:51:24.220Z,-2.24
2024-01-08T04:53:51.353Z,-2.25
2024-01-08T04:56:25.063Z,-2.21
2024-01-08T04:58:55.175Z,-2.35
2024-01-08T05:01:22.931Z,-2.27
2024-01-08T05:03:49.648Z,-2.24
2024-01-08T05:06:17.425Z,-2.34
2024-01-08T05:08:43.892Z,-2.30
2024-01-08T05:11:12.019Z,-2.17
2024-01-08T05:13:41.375Z,-2.28
2024-01-08T05:16:08.239Z,-2.30
2024-01-08T05:18:34.757Z,-2.23
2024-01-08T05:21:01.253Z,-2.15
2024-01-08T05:23:27.788Z,-2.24
2024-01-08T05:25:54.356Z,-2.28
2024-01-08T05:28:20.790Z,-2.25
2024-01-08T05:30:47.442Z,-2.31
2024-01-08T05:33:14.067Z,-2.24
2024-01-08T05:35:41.935Z,-2.14
2024-01-08T05:38:08.586Z,-2.17
2024-01-08T05:40:35.076Z,-2.23
2024-01-08T05:43:01.472Z,-2.15
2024-01-08T05:45:27.898Z,-2.17
2024-01-08T05:47:55.967Z,-2.20
2024-01-08T05:50:26.740Z,-2.17
2024-01-08T05:52:53.895Z,-2.12
2024-01-08T05:55:20.740Z,-2.03
2024-01-08T05:57:47.723Z,-2.07
2024-01-08T06:00:15.260Z,-2.04
2024-01-08T06:02:43.003Z,-2.07
2024-01-08T06:05:10.586Z,-2.08
2024-01-08T06:07:37.857Z,-2.04
2024-01-08T06:10:04.934Z,-2.05
2024-01-08T06:12:31.544Z,-2.09
2024-01-08T06:14:58.283Z,-2.07
2024-01-08T06:17:24.735Z,-2.06
2024-01-08T06:19:51.223Z,-2.04
2024-01-08T06:22:17.710Z,-2.07
2024-01-08T06:24:44.471Z,-2.09
2024-01-08T06:27:10.886Z,-2.08
2024-01-08T06:29:37.408Z,-2.00
2024-01-08T06:32:04.365Z,-2.02
2024-01-08T06:34:30.905Z,-1.96
2024-01-08T06:36:57.441Z,-2.00
2024-01-08T06:39:23.884Z,-1.92
2024-01-08T06:41:50.289Z,-1.94
2024-01-08T06:44:16.831Z,-1.91
2024-01-08T06:46:43.268Z,-2.01
2024-01-08T06:49:09.962Z,-2.06
2024-01-08T06:51:41.551Z,-1.93
2024-01-08T06:54:08.971Z,-1.94
2024-01-08T06:56:35.789Z,-1.94
2024-01-08T06:59:02.742Z,-1.86
2024-01-08T07:01:29.705Z,-1.95
2024-01-08T07:03:56.206Z,-1.86
2024-01-08T07:06:22.894Z,-1.88
2024-01-08T07:08:49.326Z,-1.99
2024-01-08T07:11:24.093Z,-2.01
2024-01-08T07:13:51.280Z,-1.97
2024-01-08T07:16:18.736Z,-1.99
2024-01-08T07:18:46.000Z,-1.96
2024-01-08T07:21:17.898Z,-2.07
2024-01-08T07:23:49.455Z,-2.03
2024-01-08T07:26:17.619Z,-1.99
2024-01-08T07:28:45.194Z,-1.98
2024-01-08T07:31:12.681Z,-2.01
2024-01-08T07:33:39.481Z,-1.95
2024-01-08T07:36:06.287Z,-1.91
2024-01-08T07:38:33.210Z,-1.98
2024-01-08T07:41:02.513Z,-1.96
2024-01-08T07:43:29.073Z,-1.97
2024-01-08T07:45:55.791Z,-2.01
2024-01-08T07:48:22.311Z,-2.00
2024-01-08T07:50:49.882Z,-1.97
2024-01-08T07:53:17.506Z,-1.94
2024-01-08T07:55:44.049Z,-1.99
2024-01-08T07:58:14.617Z,-1.96
2024-01-08T08:00:42.135Z,-2.00
2024-01-08T08:03:09.162Z,-1.98
2024-01-08T08:05:35.835Z,-1.93
2024-01-08T08:08:02.495Z,-1.94
2024-01-08T08:10:29.045Z,-1.92
2024-01-08T08:12:55.618Z,-1.95
2024-01-08T08:15:22.123Z,-1.98
2024-01-08T08:17:48.714Z,-1.89
2024-01-08T08:20:15.446Z,-1.92
2024-01-08T08:22:44.177Z,-1.92
2024-01-08T08:25:11.489Z,-1.99
2024-01-08T08:27:37.944Z,-1.81
2024-01-08T08:30:04.853Z,-1.83
2024-01-08T08:32:31.546Z,-1.93
2024-01-08T08:34:58.148Z,-1.91
2024-01-08T08:37:39.532Z,-1.94
2024-01-08T08:40:13.696Z,-2.03
2024-01-08T08:42:40.197Z,-1.98
2024-01-08T08:45:07.829Z,-1.91
2024-01-08T08:47:34.329Z,-1.93
2024-01-08T08:50:00.774Z,-1.89
2024-01-08T08:52:27.259Z,-1.94
2024-01-08T08:54:53.670Z,-1.89
2024-01-08T08:57:20.401Z,-1.92
2024-01-08T08:59:48.376Z,-1.93
2024-01-08T09:02:15.166Z,-1.84
2024-01-08T09:04:41.724Z,-1.80
2024-01-08T09:07:08.324Z,-1.85
2024-01-08T09:09:34.827Z,-1.90
2024-01-08T09:12:01.192Z,-1.87
2024-01-08T09:14:27.720Z,-1.80
2024-01-08T09:16:54.224Z,-1.87
2024-01-08T09:19:20.696Z,-1.89
2024-01-08T09:21:48.966Z,-1.83
2024-01-08T09:24:15.370Z,-1.76
2024-01-08T09:26:43.104Z,-1.68
2024-01-08T09:29:10.064Z,-1.58
2024-01-08T09:31:36.668Z,-1.61
2024-01-08T09:34:03.574Z,-1.57
2024-01-08T09:36:30.075Z,-1.42
2024-01-08T09:38:56.472Z,-1.46
2024-01-08T09:41:24.464Z,-1.64
2024-01-08T09:43:53.200Z,-1.61
2024-01-08T09:46:27.653Z,-1.44
2024-01-08T09:48:57.476Z,-1.34
2024-01-08T09:51:24.449Z,-1.32
2024-01-08T09:53:53.654Z,-1.41
2024-01-08T09:56:21.120Z,-1.45
2024-01-08T09:58:47.673Z,-1.43
2024-01-08T10:01:14.148Z,-1.52
2024-01-08T10:03:40.608Z,-1.55
2024-01-08T10:06:08.677Z,-1.64
2024-01-08T10:08:35.514Z,-1.71
2024-01-08T10:11:04.142Z,-1.78
2024-01-08T10:13:30.565Z,-1.77
2024-01-08T10:15:57.657Z,-1.78
2024-01-08T10:18:24.489Z,-1.70
2024-01-08T10:21:11.708Z,-1.68
2024-01-08T10:23:38.809Z,-1.71
2024-01-08T10:26:05.724Z,-1.89
2024-01-08T10:28:38.711Z,-1.78
2024-01-08T10:31:06.452Z,-1.85
2024-01-08T10:33:33.692Z,-1.81
2024-01-08T10:36:08.724Z,-1.69
2024-01-08T10:38:35.336Z,-1.78
2024-01-08T10:41:03.144Z,-1.62
2024-01-08T10:43:30.701Z,-1.48
2024-01-08T10:46:06.001Z,-1.64
2024-01-08T10:48:51.808Z,-1.58
2024-01-08T10:51:19.369Z,-1.66
2024-01-08T10:53:47.261Z,-1.54
2024-01-08T10:56:21.775Z,-1.66
2024-01-08T10:59:07.275Z,-1.66
2024-01-08T11:01:34.297Z,-1.59
2024-01-08T11:04:02.382Z,-1.74
2024-01-08T11:06:30.396Z,-1.73
2024-01-08T11:08:58.395Z,-1.81
2024-01-08T11:11:24.890Z,-1.91
2024-01-08T11:13:51.339Z,-1.91
2024-01-08T11:16:30.590Z,-1.81
2024-01-08T11:19:20.238Z,-1.83
2024-01-08T11:21:50.286Z,-1.70
2024-01-08T11:24:17.264Z,-1.70
2024-01-08T11:26:45.259Z,-1.68
2024-01-08T11:29:12.428Z,-1.73
2024-01-08T11:31:48.912Z,-1.67
2024-01-08T11:34:40.291Z,-1.80
2024-01-08T11:37:32.963Z,-1.80
2024-01-08T11:40:11.409Z,-1.77
2024-01-08T11:42:37.939Z,-1.69
2024-01-08T11:45:04.600Z,-1.58
2024-01-08T11:47:32.609Z,-1.65
2024-01-08T11:49:59.116Z,-1.81
2024-01-08T11:52:29.443Z,-1.88
2024-01-08T11:54:56.837Z,-1.88
2024-01-08T11:57:24.047Z,-1.92
2024-01-08T11:59:50.743Z,-1.84
2024-01-08T12:02:22.150Z,-1.71
2024-01-08T12:04:59.885Z,-1.67
2024-01-08T12:07:30.094Z,-1.58
2024-01-08T12:09:58.944Z,-1.64
2024-01-08T12:12:25.964Z,-1.53
2024-01-08T12:14:53.210Z,-1.63
2024-01-08T12:17:20.119Z,-1.71
2024-01-08T12:19:49.338Z,-1.74
2024-01-08T12:22:17.999Z,-1.77
2024-01-08T12:24:48.776Z,-1.77
2024-01-08T12:27:20.842Z,-1.90
2024-01-08T12:29:50.536Z,-1.82
2024-01-08T12:32:19.655Z,-1.76
2024-01-08T12:34:46.542Z,-1.74
2024-01-08T12:37:15.988Z,-1.60
2024-01-08T12:39:44.543Z,-1.60
2024-01-08T12:42:15.748Z,-1.67
2024-01-08T12:44:44.760Z,-1.81
2024-01-08T12:47:11.420Z,-1.78
2024-01-08T12:49:38.551Z,-1.71
2024-01-08T12:52:08.422Z,-1.67
2024-01-08T12:54:38.296Z,-1.70
2024-01-08T12:57:05.383Z,-1.72
2024-01-08T12:59:35.457Z,-1.50
2024-01-08T13:02:02.291Z,-1.64
2024-01-08T13:04:28.710Z,-1.91
2024-01-08T13:06:55.554Z,-1.83
2024-01-08T13:09:22.043Z,-1.86
2024-01-08T13:11:48.653Z,-1.82
2024-01-08T13:14:15.431Z,-1.91
2024-01-08T13:16:43.683Z,-1.92
2024-01-08T13:19:11.167Z,-1.79
2024-01-08T13:21:43.201Z,-1.79
2024-01-08T13:24:15.597Z,-1.75
2024-01-08T13:26:42.953Z,-1.71
2024-01-08T13:29:12.448Z,-1.73
2024-01-08T13:31:41.028Z,-1.68
2024-01-08T13:34:07.972Z,-1.65
2024-01-08T13:36:36.027Z,-1.66
2024-01-08T13:39:02.510Z,-1.57
2024-01-08T13:41:34.897Z,-1.74
2024-01-08T13:44:04.783Z,-1.63
2024-01-08T13:46:31.616Z,-1.59
2024-01-08T13:48:58.439Z,-1.67
2024-01-08T13:51:25.019Z,-1.68
2024-01-08T13:53:51.916Z,-1.65
2024-01-08T13:56:18.643Z,-1.65
2024-01-08T13:58:45.045Z,-1.62
2024-01-08T14:01:13.692Z,-1.61
2024-01-08T14:03:40.081Z,-1.61
2024-01-08T14:06:06.646Z,-1.75
2024-01-08T14:08:33.225Z,-1.68
2024-01-08T14:11:00.703Z,-1.68
2024-01-08T14:13:27.116Z,-1.81
2024-01-08T14:15:53.616Z,-1.87
2024-01-08T14:18:20.245Z,-1.90
2024-01-08T14:20:47.093Z,-1.87
2024-01-08T14:23:13.596Z,-1.95
2024-01-08T14:25:40.224Z,-1.97
2024-01-08T14:28:06.615Z,-1.91
2024-01-08T14:30:33.603Z,-1.94
2024-01-08T14:33:01.040Z,-2.05
2024-01-08T14:35:28.114Z,-2.02
2024-01-08T14:37:55.002Z,-2.05
2024-01-08T14:40:28.844Z,-2.13
2024-01-08T14:42:56.978Z,-2.16
2024-01-08T14:45:23.664Z,-2.09
2024-01-08T14:47:50.320Z,-2.13
2024-01-08T14:50:18.420Z,-2.21
2024-01-08T14:52:47.028Z,-2.22
2024-01-08T14:55:13.495Z,-2.32
2024-01-08T14:57:39.942Z,-2.31
2024-01-08T15:00:10.216Z,-2.32
2024-01-08T15:02:36.673Z,-2.33
2024-01-08T15:05:03.288Z,-2.40
2024-01-08T15:07:29.759Z,-2.37
2024-01-08T15:09:58.679Z,-2.52
2024-01-08T15:12:25.459Z,-2.45
2024-01-08T15:14:51.956Z,-2.41
2024-01-08T15:17:18.519Z,-2.51
2024-01-08T15:19:45.108Z,-2.55
2024-01-08T15:22:11.520Z,-2.48
2024-01-08T15:24:39.247Z,-2.49
2024-01-08T15:27:05.984Z,-2.60
2024-01-08T15:29:35.740Z,-2.64
2024-01-08T15:32:02.759Z,-2.65
2024-01-08T15:34:29.235Z,-2.64
2024-01-08T15:36:55.659Z,-2.67
2024-01-08T15:39:22.028Z,-2.64
2024-01-08T15:41:48.467Z,-2.69
2024-01-08T15:44:15.260Z,-2.77
2024-01-08T15:46:43.596Z,-2.77
2024-01-08T15:49:10.422Z,-2.79
2024-01-08T15:51:36.896Z,-2.71
2024-01-08T15:54:04.002Z,-2.84
2024-01-08T15:56:30.571Z,-2.74
2024-01-08T15:58:58.761Z,-2.82
2024-01-08T16:01:26.727Z,-2.79
2024-01-08T16:03:53.804Z,-2.82
2024-01-08T16:06:23.252Z,-2.94
2024-01-08T16:08:50.037Z,-2.93
2024-01-08T16:11:18.104Z,-2.92
2024-01-08T16:13:47.754Z,-2.96
2024-01-08T16:16:14.187Z,-2.96
2024-01-08T16:18:41.918Z,-2.96
2024-01-08T16:21:08.827Z,-2.96
2024-01-08T16:23:36.171Z,-3.00
2024-01-08T16:26:03.227Z,-3.03
2024-01-08T16:28:29.801Z,-2.98
2024-01-08T16:30:56.279Z,-3.08
2024-01-08T16:33:22.886Z,-3.07
2024-01-08T16:35:49.592Z,-3.06
2024-01-08T16:38:16.756Z,-3.09
2024-01-08T16:40:43.315Z,-3.05
2024-01-08T16:43:10.205Z,-3.07
2024-01-08T16:45:36.622Z,-3.06
2024-01-08T16:48:03.452Z,-3.18
2024-01-08T16:50:30.152Z,-3.20
2024-01-08T16:52:56.676Z,-3.26
2024-01-08T16:55:23.069Z,-3.20
2024-01-08T16:57:49.520Z,-3.22
2024-01-08T17:00:17.089Z,-3.19
2024-01-08T17:02:44.009Z,-3.21
2024-01-08T17:05:11.258Z,-3.29
2024-01-08T17:07:37.832Z,-3.26
2024-01-08T17:10:04.984Z,-3.22
2024-01-08T17:12:31.403Z,-3.29
2024-01-08T17:14:57.867Z,-3.31
2024-01-08T17:17:24.704Z,-3.32
2024-01-08T17:19:51.188Z,-3.23
2024-01-08T17:22:18.441Z,-3.30
2024-01-08T17:24:44.832Z,-3.30
2024-01-08T17:27:11.551Z,-3.32
2024-01-08T17:29:38.861Z,-3.26
2024-01-08T17:32:05.703Z,-3.39
2024-01-08T17:34:32.320Z,-3.37
2024-01-08T17:36:58.828Z,-3.33
2024-01-08T17:39:25.919Z,-3.37
2024-01-08T17:41:52.430Z,-3.43
2024-01-08T17:44:18.928Z,-3.41
2024-01-08T17:46:45.381Z,-3.44
2024-01-08T17:49:14.322Z,-3.49
2024-01-08T17:51:40.756Z,-3.44
2024-01-08T17:54:07.519Z,-3.39
2024-01-08T17:56:41.723Z,-3.43
2024-01-08T17:59:08.921Z,-3.43
2024-01-08T18:01:39.123Z,-3.41
2024-01-08T18:04:06.908Z,-3.46
2024-01-08T18:06:34.816Z,-3.50
2024-01-08T18:09:04.687Z,-3.56
2024-01-08T18:11:32.433Z,-3.53
2024-01-08T18:13:59.341Z,-3.52
2024-01-08T18:16:25.807Z,-3.49
2024-01-08T18:18:52.243Z,-3.57
2024-01-08T18:21:26.072Z,-3.59
2024-01-08T18:23:52.748Z,-3.62
2024-01-08T18:26:19.502Z,-3.65
2024-01-08T18:28:46.010Z,-3.63
2024-01-08T18:31:12.456Z,-3.58
2024-01-08T18:33:39.697Z,-3.65
2024-01-08T18:36:06.693Z,-3.65
2024-01-08T18:38:36.150Z,-3.70
2024-01-08T18:41:02.716Z,-3.75
2024-01-08T18:43:29.173Z,-3.71
2024-01-08T18:45:55.609Z,-3.73
2024-01-08T18:48:24.532Z,-3.74
2024-01-08T18:50:55.153Z,-3.66
2024-01-08T18:53:22.017Z,-3.71
2024-01-08T18:55:48.747Z,-3.76
2024-01-08T18:58:18.093Z,-3.74
2024-01-08T19:00:46.883Z,-3.75
2024-01-08T19:03:13.347Z,-3.79
2024-01-08T19:05:39.868Z,-3.75
2024-01-08T19:08:06.811Z,-3.77
2024-01-08T19:10:33.243Z,-3.86
2024-01-08T19:12:59.633Z,-3.79
2024-01-08T19:15:26.015Z,-3.86
2024-01-08T19:17:52.824Z,-3.89
2024-01-08T19:20:23.133Z,-3.85
2024-01-08T19:22:50.504Z,-3.89
2024-01-08T19:25:17.304Z,-3.87
2024-01-08T19:27:43.745Z,-3.93
2024-01-08T19:30:10.628Z,-3.91
2024-01-08T19:32:37.180Z,-3.94
2024-01-08T19:35:03.968Z,-3.94
2024-01-08T19:37:30.574Z,-3.96
2024-01-08T19:39:57.629Z,-4.01
2024-01-08T19:42:24.018Z,-3.97
2024-01-08T19:44:50.621Z,-4.03
2024-01-08T19:47:17.248Z,-4.03
2024-01-08T19:49:45.627Z,-3.94
2024-01-08T19:52:12.142Z,-4.00
2024-01-08T19:54:39.879Z,-3.99
2024-01-08T19:57:09.722Z,-3.99
2024-01-08T19:59:36.146Z,-4.06
2024-01-08T20:02:03.216Z,-4.08
2024-01-08T20:04:29.674Z,-4.09
2024-01-08T20:06:56.302Z,-4.09
2024-01-08T20:09:23.194Z,-4.13
2024-01-08T20:11:49.660Z,-4.00
2024-01-08T20:14:16.252Z,-4.11
2024-01-08T20:16:43.366Z,-4.15
2024-01-08T20:19:09.838Z,-4.09
2024-01-08T20:21:36.323Z,-4.17
2024-01-08T20:24:02.923Z,-4.08
2024-01-08T20:26:29.413Z,-4.10
2024-01-08T20:28:55.897Z,-4.16
2024-01-08T20:31:22.366Z,-4.15
2024-01-08T20:33:49.244Z,-4.13
2024-01-08T20:36:15.900Z,-4.20
2024-01-08T20:38:42.364Z,-4.20
2024-01-08T20:41:09.043Z,-4.24
2024-01-08T20:43:35.475Z,-4.23
2024-01-08T20:46:02.113Z,-4.26
2024-01-08T20:48:28.838Z,-4.22
2024-01-08T20:50:55.347Z,-4.22
2024-01-08T20:53:21.856Z,-4.26
2024-01-08T20:55:48.345Z,-4.19
2024-01-08T20:58:14.812Z,-4.29
2024-01-08T21:00:41.398Z,-4.26
2024-01-08T21:03:07.913Z,-4.32
2024-01-08T21:05:34.507Z,-4.36
2024-01-08T21:08:01.926Z,-4.39
2024-01-08T21:10:28.484Z,-4.36
2024-01-08T21:12:54.923Z,-4.31
2024-01-08T21:15:21.494Z,-4.33
2024-01-08T21:17:48.051Z,-4.38
2024-01-08T21:20:14.696Z,-4.40
2024-01-08T21:22:41.960Z,-4.32
2024-01-08T21:25:09.567Z,-4.32
2024-01-08T21:27:36.103Z,-4.37
2024-01-08T21:30:02.563Z,-4.36
2024-01-08T21:32:29.357Z,-4.49
2024-01-08T21:34:55.793Z,-4.48
2024-01-08T21:37:22.453Z,-4.53
2024-01-08T21:39:48.979Z,-4.49
2024-01-08T21:42:15.643Z,-4.51
2024-01-08T21:44:42.128Z,-4.46
2024-01-08T21:47:08.590Z,-4.46
2024-01-08T21:49:35.080Z,-4.48
2024-01-08T21:52:01.515Z,-4.56
2024-01-08T21:54:27.911Z,-4.53
2024-01-08T21:56:54.391Z,-4.51
2024-01-08T21:59:20.979Z,-4.59
2024-01-08T22:01:47.612Z,-4.55
2024-01-08T22:04:14.116Z,-4.58
2024-01-08T22:06:40.544Z,-4.62
2024-01-08T22:09:07.038Z,-4.58
2024-01-08T22:11:33.583Z,-4.63
2024-01-08T22:14:00.043Z,-4.64
2024-01-08T22:16:26.460Z,-4.57
2024-01-08T22:18:52.853Z,-4.64
2024-01-08T22:21:19.389Z,-4.68
2024-01-08T22:23:45.924Z,-4.63
2024-01-08T22:26:12.481Z,-4.64
2024-01-08T22:28:38.911Z,-4.61
2024-01-08T22:31:05.805Z,-4.67
2024-01-08T22:33:32.409Z,-4.72
2024-01-08T22:35:58.945Z,-4.59
2024-01-08T22:38:26.197Z,-4.68
2024-01-08T22:40:52.797Z,-4.61
2024-01-08T22:43:19.209Z,-4.69
2024-01-08T22:45:45.648Z,-4.66
2024-01-08T22:48:12.134Z,-4.67
2024-01-08T22:50:38.611Z,-4.78
2024-01-08T22:53:05.080Z,-4.84
2024-01-08T22:55:31.521Z,-4.82
2024-01-08T22:57:57.988Z,-4.76
2024-01-08T23:00:25.133Z,-4.80
2024-01-08T23:02:52.312Z,-4.74
2024-01-08T23:05:19.154Z,-4.76
2024-01-08T23:07:45.652Z,-4.79
2024-01-08T23:10:12.077Z,-4.83
2024-01-08T23:12:38.536Z,-4.85
2024-01-08T23:15:05.512Z,-4.73
2024-01-08T23:17:31.966Z,-4.78
2024-01-08T23:19:58.470Z,-4.78
2024-01-08T23:22:25.244Z,-4.83
2024-01-08T23:24:51.760Z,-4.86
2024-01-08T23:27:18.389Z,-4.82
2024-01-08T23:29:44.978Z,-4.89
2024-01-08T23:32:11.481Z,-4.86
2024-01-08T23:34:37.985Z,-4.87
2024-01-08T23:37:04.676Z,-4.88
2024-01-08T23:39:34.045Z,-4.84
2024-01-08T23:42:00.449Z,-4.93
2024-01-08T23:44:26.851Z,-4.85
2024-01-08T23:46:53.475Z,-4.92
2024-01-08T23:49:21.488Z,-4.89
2024-01-08T23:51:47.950Z,-4.87
2024-01-08T23:54:14.494Z,-4.92
2024-01-08T23:56:40.943Z,-5.03
2024-01-08T23:59:07.534Z,-5.00
